createdAt,value
2023-01-15T00:03:21.014Z,99641.59
2023-01-15T00:08:25.130Z,99668.25
2023-01-15T00:13:28.886Z,99662.09
2023-01-15T00:18:32.904Z,99643.53
2023-01-15T00:23:53.898Z,99650.28
2023-01-15T00:28:56.414Z,99656.91
2023-01-15T00:34:00.568Z,99662.72
2023-01-15T00:39:03.157Z,99644.38
2023-01-15T00:44:06.121Z,99639.44
2023-01-15T00:49:10.379Z,99643.31
2023-01-15T00:54:12.972Z,99633.63
2023-01-15T00:59:15.977Z,99634.72
2023-01-15T01:04:20.708Z,99647.38
2023-01-15T01:09:23.542Z,99659.81
2023-01-15T01:14:26.221Z,99662.63
2023-01-15T01:19:30.120Z,99677.09
2023-01-15T01:24:33.217Z,99685.13
2023-01-15T01:29:36.095Z,99671.56
2023-01-15T01:34:40.623Z,99676.97
2023-01-15T01:39:43.582Z,99694.03
2023-01-15T01:45:04.893Z,99674.81
2023-01-15T01:50:14.324Z,99656.19
2023-01-15T01:55:20.854Z,99685.94
2023-01-15T02:05:59.325Z,99686.03
2023-01-15T02:11:03.383Z,99687.19
2023-01-15T02:16:14.352Z,99671.13
2023-01-15T02:21:27.905Z,99652.63
2023-01-15T02:27:01.764Z,99677.94
2023-01-15T02:32:11.413Z,99662.78
2023-01-15T02:37:21.215Z,99661.34
2023-01-15T02:42:28.363Z,99667.97
2023-01-15T02:47:35.572Z,99664.75
2023-01-15T02:52:45.398Z,99655.03
2023-01-15T02:57:54.263Z,99651.94
2023-01-15T03:03:02.445Z,99657.53
2023-01-15T03:08:07.757Z,99638.06
2023-01-15T03:13:18.074Z,99627.16
2023-01-15T03:18:27.983Z,99625.44
2023-01-15T03:23:31.671Z,99634.03
2023-01-15T03:28:39.721Z,99620.69
2023-01-15T03:33:43.383Z,99618.56
2023-01-15T03:38:51.871Z,99613.34
2023-01-15T03:44:21.852Z,99626.25
2023-01-15T03:49:34.280Z,99623.16
2023-01-15T03:54:50.607Z,99620.91
2023-01-15T03:59:59.713Z,99623.94
2023-01-15T04:05:04.969Z,99620.00
2023-01-15T04:10:11.257Z,99633.19
2023-01-15T04:15:16.976Z,99631.06
2023-01-15T04:20:19.975Z,99633.25
2023-01-15T04:25:23.383Z,99638.69
2023-01-15T04:30:27.969Z,99541.81
2023-01-15T04:35:30.625Z,99645.41
2023-01-15T04:40:50.656Z,99647.59
2023-01-15T04:45:54.571Z,99638.50
2023-01-15T04:50:57.541Z,99631.50
2023-01-15T04:56:03.060Z,99631.09
2023-01-15T05:01:12.742Z,99626.06
2023-01-15T05:06:15.393Z,99629.94
2023-01-15T05:11:17.961Z,99630.72
2023-01-15T05:16:24.632Z,99609.13
2023-01-15T05:21:28.916Z,99630.78
2023-01-15T05:26:33.282Z,99612.66
2023-01-15T05:31:37.258Z,99622.13
2023-01-15T05:36:39.922Z,99628.41
2023-01-15T05:41:51.748Z,99623.19
2023-01-15T05:46:58.854Z,99631.03
2023-01-15T05:52:02.722Z,99618.34
2023-01-15T05:57:05.533Z,99628.19
2023-01-15T06:02:09.434Z,99629.72
2023-01-15T06:07:11.945Z,99633.38
2023-01-15T06:12:14.469Z,99637.66
2023-01-15T06:17:18.443Z,99641.38
2023-01-15T06:22:21.126Z,99653.72
2023-01-15T06:27:23.647Z,99650.16
2023-01-15T06:32:28.103Z,99653.13
2023-01-15T06:37:30.624Z,99655.59
2023-01-15T06:42:50.976Z,99649.78
2023-01-15T06:47:54.899Z,99650.44
2023-01-15T06:52:57.494Z,99643.22
2023-01-15T06:58:00.012Z,99643.25
2023-01-15T07:03:04.955Z,99653.56
2023-01-15T07:08:07.969Z,99650.91
2023-01-15T07:13:11.310Z,99644.94
2023-01-15T07:18:15.178Z,99654.84
2023-01-15T07:23:17.726Z,99645.06
2023-01-15T07:28:20.711Z,99657.47
2023-01-15T07:33:24.559Z,99682.03
2023-01-15T07:38:29.252Z,99683.75
2023-01-15T07:43:49.279Z,99677.53
2023-01-15T07:49:10.880Z,99670.63
2023-01-15T07:54:13.421Z,99673.59
2023-01-15T07:59:15.961Z,99690.09
2023-01-15T08:04:20.240Z,99702.41
2023-01-15T08:09:22.847Z,99692.84
2023-01-15T08:14:43.077Z,99707.91
2023-01-15T08:19:47.004Z,99723.59
2023-01-15T08:24:49.597Z,99728.44
2023-01-15T08:29:52.250Z,99733.91
2023-01-15T08:34:56.123Z,99720.66
2023-01-15T08:39:58.652Z,99719.78
2023-01-15T08:45:01.416Z,99731.72
2023-01-15T08:50:06.457Z,99744.19
2023-01-15T08:55:09.983Z,99735.06
2023-01-15T09:00:14.326Z,99743.19
2023-01-15T09:05:18.751Z,99739.06
2023-01-15T09:10:21.685Z,99753.06
2023-01-15T09:15:24.238Z,99744.19
2023-01-15T09:20:28.559Z,99738.44
2023-01-15T09:25:31.111Z,99745.78
2023-01-15T09:30:33.978Z,99731.81
2023-01-15T09:35:37.871Z,99725.59
2023-01-15T09:40:49.808Z,99707.81
2023-01-15T09:45:57.948Z,99734.94
2023-01-15T09:51:17.409Z,99754.84
2023-01-15T09:56:23.457Z,99753.59
2023-01-15T10:01:29.163Z,99744.19
2023-01-15T10:06:40.660Z,99753.25
2023-01-15T10:12:03.949Z,99732.19
2023-01-15T10:17:26.719Z,99740.47
2023-01-15T10:22:51.825Z,99750.09
2023-01-15T10:27:55.340Z,99762.38
2023-01-15T10:33:03.330Z,99758.25
2023-01-15T10:38:17.050Z,99771.03
2023-01-15T10:43:24.304Z,99766.91
2023-01-15T10:48:33.346Z,99790.25
2023-01-15T10:53:43.600Z,99775.88
2023-01-15T10:58:51.138Z,99747.94
2023-01-15T11:03:54.628Z,99785.38
2023-01-15T11:09:10.461Z,99765.63
2023-01-15T11:14:31.476Z,99777.00
2023-01-15T11:19:40.049Z,99771.63
2023-01-15T11:24:52.707Z,99774.78
2023-01-15T11:29:57.556Z,99770.50
2023-01-15T11:35:02.158Z,99765.88
2023-01-15T11:40:07.764Z,99775.28
2023-01-15T11:45:33.347Z,99765.66
2023-01-15T11:50:53.146Z,99783.09
2023-01-15T11:56:01.132Z,99763.91
2023-01-15T12:01:03.856Z,99769.19
2023-01-15T12:06:09.818Z,99770.47
2023-01-15T12:11:31.548Z,99772.78
2023-01-15T12:16:42.829Z,99787.94
2023-01-15T12:22:07.722Z,99765.59
2023-01-15T12:27:29.819Z,99759.44
2023-01-15T12:32:36.568Z,99744.84
2023-01-15T12:37:45.925Z,99745.13
2023-01-15T12:43:11.317Z,99760.69
2023-01-15T12:48:20.646Z,99767.00
2023-01-15T12:53:26.598Z,99745.53
2023-01-15T12:58:41.241Z,99762.69
2023-01-15T13:03:57.977Z,99767.28
2023-01-15T13:09:06.129Z,99772.47
2023-01-15T13:14:16.426Z,99771.03
2023-01-15T13:19:33.455Z,99756.56
2023-01-15T13:25:09.460Z,99752.03
2023-01-15T13:30:31.437Z,99748.75
2023-01-15T13:35:38.493Z,99752.78
2023-01-15T13:40:44.478Z,99771.72
2023-01-15T13:45:51.674Z,99773.84
2023-01-15T13:50:57.397Z,99764.16
2023-01-15T13:56:05.506Z,99770.28
2023-01-15T14:01:24.389Z,99758.66
2023-01-15T14:06:37.491Z,99780.31
2023-01-15T14:11:47.736Z,99791.00
2023-01-15T14:17:00.995Z,99793.66
2023-01-15T14:22:34.468Z,99786.53
2023-01-15T14:27:50.793Z,99788.31
2023-01-15T14:33:09.998Z,99792.09
2023-01-15T14:38:16.484Z,99791.41
2023-01-15T14:43:22.419Z,99802.38
2023-01-15T14:48:39.361Z,99804.59
2023-01-15T14:53:45.631Z,99809.16
2023-01-15T14:58:57.211Z,99812.38
2023-01-15T15:04:12.219Z,99813.53
2023-01-15T15:09:20.686Z,99775.09
2023-01-15T15:14:26.928Z,99820.41
2023-01-15T15:19:38.149Z,99815.38
2023-01-15T15:24:48.248Z,99826.00
2023-01-15T15:29:51.039Z,99839.50
2023-01-15T15:34:55.988Z,99713.91
2023-01-15T15:40:02.634Z,99832.31
2023-01-15T15:45:35.733Z,99825.78
2023-01-15T15:50:40.765Z,99834.00
2023-01-15T15:55:45.967Z,99850.31
2023-01-15T16:00:48.568Z,99838.84
2023-01-15T16:06:00.262Z,99855.41
2023-01-15T16:11:07.524Z,99866.47
2023-01-15T16:16:11.378Z,99866.97
2023-01-15T16:21:20.971Z,99824.97
2023-01-15T16:26:29.945Z,99861.28
2023-01-15T16:31:34.687Z,99853.94
2023-01-15T16:36:45.324Z,99867.19
2023-01-15T16:41:49.349Z,99857.94
2023-01-15T16:46:56.283Z,99856.13
2023-01-15T16:52:02.102Z,99854.13
2023-01-15T16:57:06.217Z,99853.50
2023-01-15T17:02:15.448Z,99877.09
2023-01-15T17:07:23.797Z,99867.38
2023-01-15T17:12:31.350Z,99874.78
2023-01-15T17:17:34.076Z,99869.72
2023-01-15T17:22:38.557Z,99876.28
2023-01-15T17:27:41.081Z,99881.84
2023-01-15T17:32:43.867Z,99874.47
2023-01-15T17:37:48.234Z,99872.88
2023-01-15T17:42:51.058Z,99869.50
2023-01-15T17:47:53.716Z,99879.28
2023-01-15T17:52:57.629Z,99886.69
2023-01-15T17:58:18.099Z,99881.31
2023-01-15T18:03:40.985Z,99871.91
2023-01-15T18:08:48.496Z,99885.41
2023-01-15T18:13:52.361Z,99892.56
2023-01-15T18:18:54.949Z,99889.84
2023-01-15T18:23:59.758Z,99887.50
2023-01-15T18:29:05.331Z,99882.03
2023-01-15T18:34:08.715Z,99880.25
2023-01-15T18:39:13.589Z,99820.53
2023-01-15T18:44:36.184Z,99879.63
2023-01-15T18:49:39.923Z,99876.25
2023-01-15T18:54:43.902Z,99885.81
2023-01-15T18:59:47.979Z,99871.00
2023-01-15T19:04:50.598Z,99872.47
2023-01-15T19:09:55.700Z,99867.09
2023-01-15T19:15:16.023Z,99861.50
2023-01-15T19:20:20.417Z,99854.44
2023-01-15T19:25:25.844Z,99845.25
2023-01-15T19:30:29.615Z,99711.81
2023-01-15T19:35:32.596Z,99833.47
2023-01-15T19:40:40.389Z,99730.53
2023-01-15T19:46:15.093Z,99823.50
2023-01-15T19:51:17.709Z,99828.53
2023-01-15T19:56:22.733Z,99813.28
2023-01-15T20:01:25.439Z,99812.88
2023-01-15T20:06:28.560Z,99800.19
2023-01-15T20:11:52.917Z,99781.25
2023-01-15T20:16:55.519Z,99802.34
2023-01-15T20:21:58.814Z,99795.78
2023-01-15T20:27:02.877Z,99781.69
2023-01-15T20:32:05.979Z,99774.75
2023-01-15T20:37:09.046Z,99766.28
2023-01-15T20:42:30.564Z,99748.03
2023-01-15T20:47:50.904Z,99739.25
2023-01-15T20:52:54.726Z,99729.09
2023-01-15T20:57:58.656Z,99717.97
2023-01-15T21:03:03.228Z,99718.88
2023-01-15T21:08:06.149Z,99700.78
2023-01-15T21:13:10.599Z,99700.50
2023-01-15T21:18:13.156Z,99696.31
2023-01-15T21:23:15.752Z,99661.31
2023-01-15T21:28:19.636Z,99686.50
2023-01-15T21:33:22.226Z,99667.50
2023-01-15T21:38:24.886Z,99664.94
2023-01-15T21:43:46.525Z,99652.81
2023-01-15T21:48:51.160Z,99601.75
2023-01-15T21:53:54.382Z,99552.56
2023-01-15T21:58:58.403Z,99622.59
2023-01-15T22:04:01.283Z,99621.19
2023-01-15T22:09:04.025Z,99609.31
2023-01-15T22:14:07.908Z,99603.16
2023-01-15T22:19:12.015Z,99588.97
2023-01-15T22:24:14.589Z,99593.13
2023-01-15T22:29:18.558Z,99588.63
2023-01-15T22:34:22.491Z,99479.13
2023-01-15T22:39:26.600Z,99550.03
2023-01-15T22:44:30.578Z,99529.13
2023-01-15T22:49:33.756Z,99446.59
2023-01-15T22:54:36.378Z,99529.09
2023-01-15T22:59:40.324Z,99521.75
2023-01-15T23:04:43.394Z,99503.41
2023-01-15T23:09:46.734Z,99510.03
2023-01-15T23:14:52.108Z,99500.50
2023-01-15T23:19:54.645Z,99489.59
2023-01-15T23:24:57.231Z,99482.56
2023-01-15T23:30:01.253Z,99476.09
2023-01-15T23:35:03.921Z,99468.22
2023-01-15T23:40:07.778Z,99477.06
2023-01-15T23:45:30.226Z,99462.38
2023-01-15T23:50:32.771Z,99450.00
2023-01-15T23:55:35.297Z,99446.03
